Archival Weather

Tokyo Intl

Tokyo Intl, Japan (RJTT)

Report from: Friday, June 24, 2022 3:14 AM JST
Current time: Tuesday, August 16, 2022 11:06 AM JST

Current weather
Weather history
Weather forecast

Temperature23.0°C (73.4°F)
Dew point22.0°C (71.6°F)
Winds 12 kts (6.2 m/s, 13.8 mph) South (190°)
Visibility6.2 mi. (10 km)
Clouds Few clouds 400 ft. (122 m)
Ceiling: Broken clouds 700 ft. (213 m)
Broken clouds 2,500 ft. (762 m)
Altimeter29.77 in.Hg (1008 mB)
Relative humidity94 %
Density altitude1,464 ft. (446 m)
Remarks Special weather observation
Flight conditions Instrument Meteorological Conditions
Raw dataSPJP31 KWBC 231824 SPECI RJTT 231814Z 19012KT 9999 FEW004 BKN007 BKN025 23/22 Q1008 RMK 1ST004 5ST007 6CU025 A2979
An error has occurred. This application may no longer respond until reloaded. Reload 🗙